This is the latest recevied weather packets stored in our database for station/object IZ1UKX-13. If no packets are shown the sender has not sent any weather packets the latest 10 day(s).
| Time | Temp. | Humidity | Pressure | Rain* | Wind** | Luminosity | Snow |
|---|---|---|---|---|---|---|---|
| 1778248281 | 20.56° C | 65% | 1022.7 hPa | 0 mm | - | 0 W/m² | - |
| 1778247981 | 20.56° C | 64% | 1022.7 hPa | 0 mm | - | 0 W/m² | - |
| 1778247681 | 20.56° C | 64% | 1022.7 hPa | 0 mm | - | 0 W/m² | - |
| 1778247381 | 20.56° C | 66% | 1022.7 hPa | 0 mm | - | 0 W/m² | - |
| 1778247081 | 19.44° C | 69% | 1023.2 hPa | 0 mm | - | 0 W/m² | - |
| 1778246781 | 19.44° C | 68% | 1023.2 hPa | 0 mm | - | 0 W/m² | - |
| 1778246481 | 18.89° C | 70% | 1023.2 hPa | 0 mm | - | 0 W/m² | - |
| 1778246181 | 18.89° C | 69% | 1023.2 hPa | 0 mm | - | 0 W/m² | - |
| 1778245881 | 18.33° C | 71% | 1023.2 hPa | 0 mm | - | 0 W/m² | - |
| 1778245581 | 17.78° C | 73% | 1023.6 hPa | 0 mm | - | 0 W/m² | - |
| 1778245282 | 17.22° C | 74% | 1023.6 hPa | 0 mm | - | 0 W/m² | - |
| 1778244981 | 17.78° C | 74% | 1023.6 hPa | 0 mm | - | 0 W/m² | - |
| 1778244681 | 17.78° C | 73% | 1023.6 hPa | 0 mm | - | 0 W/m² | - |
| 1778244386 | 17.78° C | 72% | 1023.2 hPa | 0 mm | - | 0 W/m² | - |
| 1778244086 | 17.78° C | 72% | 1023.2 hPa | 0 mm | - | 0 W/m² | - |
| 1778243786 | 17.78° C | 72% | 1023.2 hPa | 0 mm | - | 0 W/m² | - |
| 1778243486 | 17.78° C | 72% | 1023.2 hPa | 0 mm | - | 0 W/m² | - |
| 1778243186 | 17.78° C | 72% | 1023.2 hPa | 0 mm | - | 0 W/m² | - |
| 1778242886 | 17.78° C | 73% | 1023.6 hPa | 0 mm | - | 0 W/m² | - |
| 1778242587 | 17.78° C | 73% | 1023.6 hPa | 0 mm | - | 0 W/m² | - |
| 1778242286 | 17.22° C | 74% | 1023.6 hPa | 0 mm | - | 0 W/m² | - |
| 1778241986 | 17.22° C | 73% | 1023.6 hPa | 0 mm | - | 0 W/m² | - |
| 1778241687 | 17.22° C | 74% | 1023.6 hPa | 0 mm | - | 0 W/m² | - |
| 1778241386 | 17.22° C | 74% | 1023.6 hPa | 0 mm | - | 0 W/m² | - |
| 1778241086 | 17.78° C | 70% | 1023.8 hPa | 0 mm | - | 0 W/m² | - |
* Rain latest hour (hover to see other rain measurements)
** Current wind speed in m/s (hover to see current wind gust speed)